sensor_id;sensor_type;location;lat;lon;timestamp;P1;durP1;ratioP1;P2;durP2;ratioP2
37097;SDS011;63608;49.572;12.348;2023-09-19T00:00:27;2.03;;;1.80;;
37097;SDS011;63608;49.572;12.348;2023-09-19T00:02:32;2.33;;;1.77;;
37097;SDS011;63608;49.572;12.348;2023-09-19T00:04:36;1.30;;;1.20;;
37097;SDS011;63608;49.572;12.348;2023-09-19T00:06:39;1.67;;;1.57;;
37097;SDS011;63608;49.572;12.348;2023-09-19T00:08:44;1.30;;;1.20;;
37097;SDS011;63608;49.572;12.348;2023-09-19T00:10:48;2.10;;;1.73;;
37097;SDS011;63608;49.572;12.348;2023-09-19T00:12:50;2.20;;;2.00;;
37097;SDS011;63608;49.572;12.348;2023-09-19T00:14:53;2.30;;;1.80;;
37097;SDS011;63608;49.572;12.348;2023-09-19T00:16:57;2.63;;;2.10;;
37097;SDS011;63608;49.572;12.348;2023-09-19T00:19:03;2.13;;;1.70;;
37097;SDS011;63608;49.572;12.348;2023-09-19T00:21:09;2.37;;;2.17;;
37097;SDS011;63608;49.572;12.348;2023-09-19T00:23:11;2.43;;;1.80;;
37097;SDS011;63608;49.572;12.348;2023-09-19T00:25:14;2.17;;;1.70;;
37097;SDS011;63608;49.572;12.348;2023-09-19T00:27:17;2.23;;;1.80;;
37097;SDS011;63608;49.572;12.348;2023-09-19T00:29:20;2.37;;;2.17;;
37097;SDS011;63608;49.572;12.348;2023-09-19T00:31:23;2.00;;;1.70;;
37097;SDS011;63608;49.572;12.348;2023-09-19T00:33:25;2.13;;;1.37;;
37097;SDS011;63608;49.572;12.348;2023-09-19T00:35:32;4.30;;;1.80;;
37097;SDS011;63608;49.572;12.348;2023-09-19T00:37:34;1.50;;;1.40;;
37097;SDS011;63608;49.572;12.348;2023-09-19T00:39:37;3.93;;;1.60;;
37097;SDS011;63608;49.572;12.348;2023-09-19T00:41:41;1.70;;;1.53;;
37097;SDS011;63608;49.572;12.348;2023-09-19T00:43:47;1.83;;;1.30;;
37097;SDS011;63608;49.572;12.348;2023-09-19T00:45:52;1.47;;;1.33;;
37097;SDS011;63608;49.572;12.348;2023-09-19T00:47:57;1.67;;;1.57;;
37097;SDS011;63608;49.572;12.348;2023-09-19T00:50:09;1.97;;;1.60;;
37097;SDS011;63608;49.572;12.348;2023-09-19T00:52:12;2.30;;;1.57;;
37097;SDS011;63608;49.572;12.348;2023-09-19T00:54:16;3.10;;;1.73;;
37097;SDS011;63608;49.572;12.348;2023-09-19T00:56:18;1.73;;;1.57;;
37097;SDS011;63608;49.572;12.348;2023-09-19T00:58:20;1.70;;;1.60;;
37097;SDS011;63608;49.572;12.348;2023-09-19T01:00:22;1.60;;;1.50;;
37097;SDS011;63608;49.572;12.348;2023-09-19T01:02:25;1.60;;;1.50;;
37097;SDS011;63608;49.572;12.348;2023-09-19T01:04:30;2.10;;;1.57;;
37097;SDS011;63608;49.572;12.348;2023-09-19T01:06:37;1.73;;;1.63;;
37097;SDS011;63608;49.572;12.348;2023-09-19T01:08:41;2.00;;;1.63;;
37097;SDS011;63608;49.572;12.348;2023-09-19T01:10:46;1.70;;;1.60;;
37097;SDS011;63608;49.572;12.348;2023-09-19T01:12:54;1.50;;;1.40;;
37097;SDS011;63608;49.572;12.348;2023-09-19T01:14:59;1.37;;;1.27;;
37097;SDS011;63608;49.572;12.348;2023-09-19T01:17:08;2.60;;;1.47;;
37097;SDS011;63608;49.572;12.348;2023-09-19T01:19:24;1.73;;;1.63;;
37097;SDS011;63608;49.572;12.348;2023-09-19T01:21:35;1.27;;;1.17;;
37097;SDS011;63608;49.572;12.348;2023-09-19T01:23:49;1.70;;;1.50;;
37097;SDS011;63608;49.572;12.348;2023-09-19T01:26:11;1.70;;;1.60;;
37097;SDS011;63608;49.572;12.348;2023-09-19T01:28:30;1.30;;;1.20;;
37097;SDS011;63608;49.572;12.348;2023-09-19T01:30:39;1.90;;;1.30;;
37097;SDS011;63608;49.572;12.348;2023-09-19T01:32:45;2.47;;;1.60;;
37097;SDS011;63608;49.572;12.348;2023-09-19T01:34:48;1.47;;;1.30;;
37097;SDS011;63608;49.572;12.348;2023-09-19T01:36:50;1.50;;;1.40;;
37097;SDS011;63608;49.572;12.348;2023-09-19T01:38:55;4.20;;;1.27;;
37097;SDS011;63608;49.572;12.348;2023-09-19T01:41:10;3.33;;;1.80;;
37097;SDS011;63608;49.572;12.348;2023-09-19T01:43:15;3.90;;;1.37;;
37097;SDS011;63608;49.572;12.348;2023-09-19T01:45:24;1.40;;;1.30;;
37097;SDS011;63608;49.572;12.348;2023-09-19T01:47:33;1.40;;;1.30;;
37097;SDS011;63608;49.572;12.348;2023-09-19T01:49:54;4.03;;;1.20;;
37097;SDS011;63608;49.572;12.348;2023-09-19T01:52:02;2.20;;;1.63;;
37097;SDS011;63608;49.572;12.348;2023-09-19T01:54:09;1.50;;;1.40;;
37097;SDS011;63608;49.572;12.348;2023-09-19T01:56:16;1.40;;;1.30;;
37097;SDS011;63608;49.572;12.348;2023-09-19T01:58:25;1.27;;;1.07;;
37097;SDS011;63608;49.572;12.348;2023-09-19T02:00:34;1.43;;;1.33;;
37097;SDS011;63608;49.572;12.348;2023-09-19T02:02:40;1.80;;;1.53;;
37097;SDS011;63608;49.572;12.348;2023-09-19T02:04:46;1.30;;;1.20;;
37097;SDS011;63608;49.572;12.348;2023-09-19T02:06:48;3.37;;;1.20;;
37097;SDS011;63608;49.572;12.348;2023-09-19T02:08:52;4.20;;;1.33;;
37097;SDS011;63608;49.572;12.348;2023-09-19T02:10:55;1.10;;;1.00;;
37097;SDS011;63608;49.572;12.348;2023-09-19T02:12:56;1.60;;;1.50;;
37097;SDS011;63608;49.572;12.348;2023-09-19T02:14:59;1.40;;;1.30;;
37097;SDS011;63608;49.572;12.348;2023-09-19T02:17:00;4.40;;;1.60;;
37097;SDS011;63608;49.572;12.348;2023-09-19T02:19:04;1.17;;;1.07;;
37097;SDS011;63608;49.572;12.348;2023-09-19T02:21:08;11.10;;;1.20;;
37097;SDS011;63608;49.572;12.348;2023-09-19T02:23:14;1.43;;;1.23;;
37097;SDS011;63608;49.572;12.348;2023-09-19T02:25:17;2.10;;;1.40;;
37097;SDS011;63608;49.572;12.348;2023-09-19T02:27:27;1.40;;;1.30;;
37097;SDS011;63608;49.572;12.348;2023-09-19T02:29:30;3.23;;;1.30;;
37097;SDS011;63608;49.572;12.348;2023-09-19T02:31:34;3.47;;;1.33;;
37097;SDS011;63608;49.572;12.348;2023-09-19T02:33:35;1.87;;;1.43;;
37097;SDS011;63608;49.572;12.348;2023-09-19T02:35:40;1.27;;;1.17;;
37097;SDS011;63608;49.572;12.348;2023-09-19T02:37:45;5.10;;;1.50;;
37097;SDS011;63608;49.572;12.348;2023-09-19T02:39:52;1.63;;;1.53;;
37097;SDS011;63608;49.572;12.348;2023-09-19T02:41:54;6.03;;;1.33;;
37097;SDS011;63608;49.572;12.348;2023-09-19T02:43:56;1.63;;;1.30;;
37097;SDS011;63608;49.572;12.348;2023-09-19T02:45:59;1.57;;;1.40;;
37097;SDS011;63608;49.572;12.348;2023-09-19T02:48:03;0.90;;;0.90;;
37097;SDS011;63608;49.572;12.348;2023-09-19T02:50:08;1.90;;;1.43;;
37097;SDS011;63608;49.572;12.348;2023-09-19T02:52:13;1.57;;;1.47;;
37097;SDS011;63608;49.572;12.348;2023-09-19T02:54:16;7.03;;;1.40;;
37097;SDS011;63608;49.572;12.348;2023-09-19T02:56:19;1.50;;;1.40;;
37097;SDS011;63608;49.572;12.348;2023-09-19T02:58:22;1.60;;;1.50;;
37097;SDS011;63608;49.572;12.348;2023-09-19T03:00:30;1.73;;;1.63;;
37097;SDS011;63608;49.572;12.348;2023-09-19T03:02:34;1.50;;;1.40;;
37097;SDS011;63608;49.572;12.348;2023-09-19T03:04:35;1.50;;;1.40;;
37097;SDS011;63608;49.572;12.348;2023-09-19T03:06:38;2.67;;;1.40;;
37097;SDS011;63608;49.572;12.348;2023-09-19T03:08:41;1.57;;;1.47;;
37097;SDS011;63608;49.572;12.348;2023-09-19T03:10:46;2.20;;;1.50;;
37097;SDS011;63608;49.572;12.348;2023-09-19T03:12:52;1.93;;;1.67;;
37097;SDS011;63608;49.572;12.348;2023-09-19T03:14:55;1.63;;;1.53;;
37097;SDS011;63608;49.572;12.348;2023-09-19T03:17:00;3.03;;;1.50;;
37097;SDS011;63608;49.572;12.348;2023-09-19T03:19:05;3.10;;;1.50;;
37097;SDS011;63608;49.572;12.348;2023-09-19T03:21:10;2.10;;;1.90;;
37097;SDS011;63608;49.572;12.348;2023-09-19T03:23:13;1.40;;;1.30;;
37097;SDS011;63608;49.572;12.348;2023-09-19T03:25:21;1.53;;;1.33;;
37097;SDS011;63608;49.572;12.348;2023-09-19T03:27:24;2.30;;;1.93;;
37097;SDS011;63608;49.572;12.348;2023-09-19T03:29:26;2.23;;;1.80;;
37097;SDS011;63608;49.572;12.348;2023-09-19T03:31:32;2.20;;;2.00;;
37097;SDS011;63608;49.572;12.348;2023-09-19T03:33:37;1.20;;;1.10;;
37097;SDS011;63608;49.572;12.348;2023-09-19T03:35:39;5.03;;;1.30;;
37097;SDS011;63608;49.572;12.348;2023-09-19T03:37:40;2.73;;;1.33;;
37097;SDS011;63608;49.572;12.348;2023-09-19T03:39:42;1.70;;;1.60;;
37097;SDS011;63608;49.572;12.348;2023-09-19T03:41:47;1.53;;;1.33;;
37097;SDS011;63608;49.572;12.348;2023-09-19T03:43:49;1.40;;;1.30;;
37097;SDS011;63608;49.572;12.348;2023-09-19T03:45:52;2.77;;;2.03;;
37097;SDS011;63608;49.572;12.348;2023-09-19T03:47:57;1.77;;;1.60;;
37097;SDS011;63608;49.572;12.348;2023-09-19T03:49:59;1.70;;;1.40;;
37097;SDS011;63608;49.572;12.348;2023-09-19T03:52:01;5.60;;;1.57;;
37097;SDS011;63608;49.572;12.348;2023-09-19T03:54:06;2.37;;;1.77;;
37097;SDS011;63608;49.572;12.348;2023-09-19T03:56:07;1.97;;;1.47;;
37097;SDS011;63608;49.572;12.348;2023-09-19T03:58:13;2.37;;;1.20;;
37097;SDS011;63608;49.572;12.348;2023-09-19T04:00:15;1.50;;;1.40;;
37097;SDS011;63608;49.572;12.348;2023-09-19T04:02:21;4.03;;;1.93;;
37097;SDS011;63608;49.572;12.348;2023-09-19T04:04:24;1.43;;;1.33;;
37097;SDS011;63608;49.572;12.348;2023-09-19T04:06:27;1.67;;;1.20;;
37097;SDS011;63608;49.572;12.348;2023-09-19T04:08:28;1.60;;;1.50;;
37097;SDS011;63608;49.572;12.348;2023-09-19T04:10:30;1.53;;;1.40;;
37097;SDS011;63608;49.572;12.348;2023-09-19T04:12:34;2.40;;;1.57;;
37097;SDS011;63608;49.572;12.348;2023-09-19T04:14:38;1.80;;;1.70;;
37097;SDS011;63608;49.572;12.348;2023-09-19T04:16:40;1.40;;;1.30;;
37097;SDS011;63608;49.572;12.348;2023-09-19T04:18:42;1.20;;;1.10;;
37097;SDS011;63608;49.572;12.348;2023-09-19T04:20:47;1.87;;;1.67;;
37097;SDS011;63608;49.572;12.348;2023-09-19T04:22:49;1.70;;;1.60;;
37097;SDS011;63608;49.572;12.348;2023-09-19T04:24:58;1.53;;;1.43;;
37097;SDS011;63608;49.572;12.348;2023-09-19T04:27:00;1.43;;;1.33;;
37097;SDS011;63608;49.572;12.348;2023-09-19T04:29:02;2.17;;;1.30;;
37097;SDS011;63608;49.572;12.348;2023-09-19T04:31:08;1.40;;;1.30;;
37097;SDS011;63608;49.572;12.348;2023-09-19T04:33:14;1.77;;;1.60;;
37097;SDS011;63608;49.572;12.348;2023-09-19T04:35:15;1.40;;;1.30;;
37097;SDS011;63608;49.572;12.348;2023-09-19T04:37:19;1.20;;;1.10;;
37097;SDS011;63608;49.572;12.348;2023-09-19T04:39:22;1.30;;;1.20;;
37097;SDS011;63608;49.572;12.348;2023-09-19T04:41:25;1.40;;;1.17;;
37097;SDS011;63608;49.572;12.348;2023-09-19T04:43:28;2.23;;;1.40;;
37097;SDS011;63608;49.572;12.348;2023-09-19T04:45:34;3.13;;;1.20;;
37097;SDS011;63608;49.572;12.348;2023-09-19T04:47:38;1.27;;;1.17;;
37097;SDS011;63608;49.572;12.348;2023-09-19T04:49:40;1.33;;;1.23;;
37097;SDS011;63608;49.572;12.348;2023-09-19T04:51:44;1.50;;;1.30;;
37097;SDS011;63608;49.572;12.348;2023-09-19T04:53:51;1.97;;;1.37;;
37097;SDS011;63608;49.572;12.348;2023-09-19T04:55:56;1.47;;;1.20;;
37097;SDS011;63608;49.572;12.348;2023-09-19T04:58:03;1.50;;;1.40;;
37097;SDS011;63608;49.572;12.348;2023-09-19T05:00:05;1.17;;;1.07;;
37097;SDS011;63608;49.572;12.348;2023-09-19T05:02:12;1.77;;;1.47;;
37097;SDS011;63608;49.572;12.348;2023-09-19T05:04:17;3.63;;;1.03;;
37097;SDS011;63608;49.572;12.348;2023-09-19T05:06:24;2.87;;;1.40;;
37097;SDS011;63608;49.572;12.348;2023-09-19T05:08:28;1.73;;;1.20;;
37097;SDS011;63608;49.572;12.348;2023-09-19T05:10:30;2.03;;;1.33;;
37097;SDS011;63608;49.572;12.348;2023-09-19T05:12:31;2.17;;;1.17;;
37097;SDS011;63608;49.572;12.348;2023-09-19T05:14:34;1.33;;;1.00;;
37097;SDS011;63608;49.572;12.348;2023-09-19T05:16:37;2.53;;;1.13;;
37097;SDS011;63608;49.572;12.348;2023-09-19T05:18:40;1.40;;;1.27;;
37097;SDS011;63608;49.572;12.348;2023-09-19T05:20:45;1.50;;;1.40;;
37097;SDS011;63608;49.572;12.348;2023-09-19T05:22:47;1.40;;;1.07;;
37097;SDS011;63608;49.572;12.348;2023-09-19T05:24:50;2.50;;;1.30;;
37097;SDS011;63608;49.572;12.348;2023-09-19T05:26:55;1.93;;;1.40;;
37097;SDS011;63608;49.572;12.348;2023-09-19T05:28:57;1.20;;;1.10;;
37097;SDS011;63608;49.572;12.348;2023-09-19T05:31:00;1.83;;;1.23;;
37097;SDS011;63608;49.572;12.348;2023-09-19T05:33:03;1.60;;;1.40;;
37097;SDS011;63608;49.572;12.348;2023-09-19T05:35:06;1.20;;;1.10;;
37097;SDS011;63608;49.572;12.348;2023-09-19T05:37:11;1.10;;;1.00;;
37097;SDS011;63608;49.572;12.348;2023-09-19T05:39:16;1.50;;;1.40;;
37097;SDS011;63608;49.572;12.348;2023-09-19T05:41:19;1.27;;;1.17;;
37097;SDS011;63608;49.572;12.348;2023-09-19T05:43:23;1.47;;;1.37;;
37097;SDS011;63608;49.572;12.348;2023-09-19T05:45:24;1.93;;;1.30;;
37097;SDS011;63608;49.572;12.348;2023-09-19T05:47:28;1.50;;;1.30;;
37097;SDS011;63608;49.572;12.348;2023-09-19T05:49:31;1.10;;;1.00;;
37097;SDS011;63608;49.572;12.348;2023-09-19T05:51:34;2.03;;;0.93;;
37097;SDS011;63608;49.572;12.348;2023-09-19T05:53:38;1.20;;;1.10;;
37097;SDS011;63608;49.572;12.348;2023-09-19T05:55:43;1.17;;;1.17;;
37097;SDS011;63608;49.572;12.348;2023-09-19T05:57:49;1.63;;;1.13;;
37097;SDS011;63608;49.572;12.348;2023-09-19T05:59:52;1.80;;;1.20;;
37097;SDS011;63608;49.572;12.348;2023-09-19T06:02:02;1.40;;;1.30;;
37097;SDS011;63608;49.572;12.348;2023-09-19T06:04:06;1.40;;;1.30;;
37097;SDS011;63608;49.572;12.348;2023-09-19T06:06:08;1.00;;;1.00;;
37097;SDS011;63608;49.572;12.348;2023-09-19T06:08:16;1.17;;;1.00;;
37097;SDS011;63608;49.572;12.348;2023-09-19T06:10:23;1.20;;;1.10;;
37097;SDS011;63608;49.572;12.348;2023-09-19T06:12:25;12.23;;;1.10;;
37097;SDS011;63608;49.572;12.348;2023-09-19T06:14:28;3.50;;;1.53;;
37097;SDS011;63608;49.572;12.348;2023-09-19T06:16:31;1.43;;;1.30;;
37097;SDS011;63608;49.572;12.348;2023-09-19T06:18:38;1.47;;;1.10;;
37097;SDS011;63608;49.572;12.348;2023-09-19T06:20:40;1.43;;;1.33;;
37097;SDS011;63608;49.572;12.348;2023-09-19T06:22:46;1.40;;;1.30;;
37097;SDS011;63608;49.572;12.348;2023-09-19T06:24:49;1.23;;;1.13;;
37097;SDS011;63608;49.572;12.348;2023-09-19T06:26:53;1.43;;;1.33;;
37097;SDS011;63608;49.572;12.348;2023-09-19T06:28:55;1.33;;;1.23;;
37097;SDS011;63608;49.572;12.348;2023-09-19T06:31:01;1.67;;;1.10;;
37097;SDS011;63608;49.572;12.348;2023-09-19T06:33:08;1.17;;;1.07;;
37097;SDS011;63608;49.572;12.348;2023-09-19T06:35:12;1.10;;;1.00;;
37097;SDS011;63608;49.572;12.348;2023-09-19T06:37:15;1.63;;;1.27;;
37097;SDS011;63608;49.572;12.348;2023-09-19T06:39:18;1.20;;;1.10;;
37097;SDS011;63608;49.572;12.348;2023-09-19T06:41:22;1.20;;;1.00;;
37097;SDS011;63608;49.572;12.348;2023-09-19T06:43:27;1.40;;;1.30;;
37097;SDS011;63608;49.572;12.348;2023-09-19T06:45:31;2.07;;;1.10;;
37097;SDS011;63608;49.572;12.348;2023-09-19T06:47:38;1.33;;;0.93;;
37097;SDS011;63608;49.572;12.348;2023-09-19T06:49:40;0.90;;;0.90;;
37097;SDS011;63608;49.572;12.348;2023-09-19T06:51:44;4.60;;;1.07;;
37097;SDS011;63608;49.572;12.348;2023-09-19T06:53:45;1.20;;;1.10;;
37097;SDS011;63608;49.572;12.348;2023-09-19T06:55:47;1.97;;;1.77;;
37097;SDS011;63608;49.572;12.348;2023-09-19T06:57:49;1.00;;;1.00;;
37097;SDS011;63608;49.572;12.348;2023-09-19T06:59:54;1.53;;;1.00;;
37097;SDS011;63608;49.572;12.348;2023-09-19T07:01:56;1.43;;;1.10;;
37097;SDS011;63608;49.572;12.348;2023-09-19T07:03:59;1.30;;;1.20;;
37097;SDS011;63608;49.572;12.348;2023-09-19T07:06:01;1.00;;;0.90;;
37097;SDS011;63608;49.572;12.348;2023-09-19T07:08:05;1.43;;;1.17;;
37097;SDS011;63608;49.572;12.348;2023-09-19T07:10:06;1.30;;;1.20;;
37097;SDS011;63608;49.572;12.348;2023-09-19T07:12:11;1.20;;;1.07;;
37097;SDS011;63608;49.572;12.348;2023-09-19T07:14:13;2.33;;;1.40;;
37097;SDS011;63608;49.572;12.348;2023-09-19T07:16:20;1.57;;;1.47;;
37097;SDS011;63608;49.572;12.348;2023-09-19T07:18:30;1.53;;;1.37;;
37097;SDS011;63608;49.572;12.348;2023-09-19T07:20:32;1.50;;;1.20;;
37097;SDS011;63608;49.572;12.348;2023-09-19T07:22:35;1.57;;;1.47;;
37097;SDS011;63608;49.572;12.348;2023-09-19T07:24:39;0.97;;;0.97;;
37097;SDS011;63608;49.572;12.348;2023-09-19T07:26:41;3.90;;;1.00;;
37097;SDS011;63608;49.572;12.348;2023-09-19T07:28:46;1.40;;;1.30;;
37097;SDS011;63608;49.572;12.348;2023-09-19T07:30:48;1.50;;;1.07;;
37097;SDS011;63608;49.572;12.348;2023-09-19T07:32:51;1.77;;;1.40;;
37097;SDS011;63608;49.572;12.348;2023-09-19T07:34:55;1.40;;;1.20;;
37097;SDS011;63608;49.572;12.348;2023-09-19T07:37:15;1.67;;;1.43;;
37097;SDS011;63608;49.572;12.348;2023-09-19T07:39:20;1.40;;;1.30;;
37097;SDS011;63608;49.572;12.348;2023-09-19T07:41:24;2.00;;;1.20;;
37097;SDS011;63608;49.572;12.348;2023-09-19T07:43:31;1.00;;;0.90;;
37097;SDS011;63608;49.572;12.348;2023-09-19T07:45:35;21.23;;;1.40;;
37097;SDS011;63608;49.572;12.348;2023-09-19T07:47:43;1.30;;;1.20;;
37097;SDS011;63608;49.572;12.348;2023-09-19T07:49:49;2.27;;;1.33;;
37097;SDS011;63608;49.572;12.348;2023-09-19T07:51:52;1.23;;;1.13;;
37097;SDS011;63608;49.572;12.348;2023-09-19T07:53:59;1.50;;;1.40;;
37097;SDS011;63608;49.572;12.348;2023-09-19T07:56:02;3.37;;;1.40;;
37097;SDS011;63608;49.572;12.348;2023-09-19T07:58:04;1.63;;;1.20;;
37097;SDS011;63608;49.572;12.348;2023-09-19T08:00:10;1.43;;;1.13;;
37097;SDS011;63608;49.572;12.348;2023-09-19T08:02:15;4.33;;;1.40;;
37097;SDS011;63608;49.572;12.348;2023-09-19T08:04:22;1.20;;;1.10;;
37097;SDS011;63608;49.572;12.348;2023-09-19T08:06:24;1.50;;;1.40;;
37097;SDS011;63608;49.572;12.348;2023-09-19T08:08:30;1.93;;;1.10;;
37097;SDS011;63608;49.572;12.348;2023-09-19T08:10:31;1.47;;;1.17;;
37097;SDS011;63608;49.572;12.348;2023-09-19T08:12:35;1.30;;;1.20;;
37097;SDS011;63608;49.572;12.348;2023-09-19T08:14:46;1.20;;;1.10;;
37097;SDS011;63608;49.572;12.348;2023-09-19T08:16:55;1.20;;;1.10;;
37097;SDS011;63608;49.572;12.348;2023-09-19T08:18:59;2.70;;;1.40;;
37097;SDS011;63608;49.572;12.348;2023-09-19T08:24:01;1.23;;;1.13;;
37097;SDS011;63608;49.572;12.348;2023-09-19T08:26:04;1.20;;;1.10;;
37097;SDS011;63608;49.572;12.348;2023-09-19T08:28:08;1.07;;;0.97;;
37097;SDS011;63608;49.572;12.348;2023-09-19T08:30:12;1.10;;;1.00;;
37097;SDS011;63608;49.572;12.348;2023-09-19T08:32:17;1.00;;;0.90;;
37097;SDS011;63608;49.572;12.348;2023-09-19T08:34:24;1.37;;;1.20;;
37097;SDS011;63608;49.572;12.348;2023-09-19T08:36:28;1.17;;;1.07;;
37097;SDS011;63608;49.572;12.348;2023-09-19T08:38:31;1.20;;;1.10;;
37097;SDS011;63608;49.572;12.348;2023-09-19T08:40:35;1.63;;;1.27;;
37097;SDS011;63608;49.572;12.348;2023-09-19T08:42:49;1.80;;;1.27;;
37097;SDS011;63608;49.572;12.348;2023-09-19T08:44:51;1.10;;;1.00;;
37097;SDS011;63608;49.572;12.348;2023-09-19T08:47:04;1.30;;;1.20;;
37097;SDS011;63608;49.572;12.348;2023-09-19T08:49:16;1.40;;;1.30;;
37097;SDS011;63608;49.572;12.348;2023-09-19T08:51:26;1.50;;;1.00;;
37097;SDS011;63608;49.572;12.348;2023-09-19T08:53:30;2.00;;;1.57;;
37097;SDS011;63608;49.572;12.348;2023-09-19T08:55:40;1.70;;;1.17;;
37097;SDS011;63608;49.572;12.348;2023-09-19T08:57:46;1.30;;;1.10;;
37097;SDS011;63608;49.572;12.348;2023-09-19T08:59:53;3.60;;;1.10;;
37097;SDS011;63608;49.572;12.348;2023-09-19T09:02:11;1.10;;;1.00;;
37097;SDS011;63608;49.572;12.348;2023-09-19T09:04:14;1.43;;;1.10;;
37097;SDS011;63608;49.572;12.348;2023-09-19T09:06:19;1.57;;;0.90;;
37097;SDS011;63608;49.572;12.348;2023-09-19T09:08:21;0.90;;;0.90;;
37097;SDS011;63608;49.572;12.348;2023-09-19T09:10:25;1.33;;;1.00;;
37097;SDS011;63608;49.572;12.348;2023-09-19T09:12:30;1.00;;;0.90;;
37097;SDS011;63608;49.572;12.348;2023-09-19T09:14:37;1.00;;;0.97;;
37097;SDS011;63608;49.572;12.348;2023-09-19T09:16:39;1.03;;;0.93;;
37097;SDS011;63608;49.572;12.348;2023-09-19T09:18:42;1.40;;;1.30;;
37097;SDS011;63608;49.572;12.348;2023-09-19T09:20:46;1.13;;;1.03;;
37097;SDS011;63608;49.572;12.348;2023-09-19T09:22:51;1.60;;;1.17;;
37097;SDS011;63608;49.572;12.348;2023-09-19T09:25:00;2.23;;;1.10;;
37097;SDS011;63608;49.572;12.348;2023-09-19T09:27:05;1.20;;;1.00;;
37097;SDS011;63608;49.572;12.348;2023-09-19T09:29:16;1.10;;;0.80;;
37097;SDS011;63608;49.572;12.348;2023-09-19T09:31:24;1.10;;;1.00;;
37097;SDS011;63608;49.572;12.348;2023-09-19T09:33:28;0.80;;;0.70;;
37097;SDS011;63608;49.572;12.348;2023-09-19T09:35:38;0.80;;;0.80;;
37097;SDS011;63608;49.572;12.348;2023-09-19T09:37:48;4.43;;;1.10;;
37097;SDS011;63608;49.572;12.348;2023-09-19T09:40:08;2.90;;;0.90;;
37097;SDS011;63608;49.572;12.348;2023-09-19T09:42:36;1.40;;;1.00;;
37097;SDS011;63608;49.572;12.348;2023-09-19T09:44:45;1.10;;;1.00;;
37097;SDS011;63608;49.572;12.348;2023-09-19T09:47:14;1.17;;;1.07;;
37097;SDS011;63608;49.572;12.348;2023-09-19T09:49:33;1.50;;;1.03;;
37097;SDS011;63608;49.572;12.348;2023-09-19T09:51:39;1.10;;;0.80;;
37097;SDS011;63608;49.572;12.348;2023-09-19T09:53:44;1.43;;;1.00;;
37097;SDS011;63608;49.572;12.348;2023-09-19T09:55:56;1.90;;;0.90;;
37097;SDS011;63608;49.572;12.348;2023-09-19T09:58:15;1.30;;;1.10;;
37097;SDS011;63608;49.572;12.348;2023-09-19T10:00:20;1.30;;;1.07;;
37097;SDS011;63608;49.572;12.348;2023-09-19T10:02:25;1.37;;;0.90;;
37097;SDS011;63608;49.572;12.348;2023-09-19T10:04:33;0.87;;;0.80;;
37097;SDS011;63608;49.572;12.348;2023-09-19T10:06:40;1.17;;;1.07;;
37097;SDS011;63608;49.572;12.348;2023-09-19T10:08:59;1.03;;;0.80;;
37097;SDS011;63608;49.572;12.348;2023-09-19T10:11:15;1.20;;;0.90;;
37097;SDS011;63608;49.572;12.348;2023-09-19T10:13:20;1.10;;;1.00;;
37097;SDS011;63608;49.572;12.348;2023-09-19T10:15:25;0.87;;;0.83;;
37097;SDS011;63608;49.572;12.348;2023-09-19T10:17:30;1.33;;;0.93;;
37097;SDS011;63608;49.572;12.348;2023-09-19T10:19:36;1.13;;;1.00;;
37097;SDS011;63608;49.572;12.348;2023-09-19T10:21:46;0.80;;;0.80;;
37097;SDS011;63608;49.572;12.348;2023-09-19T10:23:50;1.10;;;1.00;;
37097;SDS011;63608;49.572;12.348;2023-09-19T10:25:56;1.20;;;1.10;;
37097;SDS011;63608;49.572;12.348;2023-09-19T10:28:02;0.80;;;0.80;;
37097;SDS011;63608;49.572;12.348;2023-09-19T10:30:07;0.70;;;0.70;;
37097;SDS011;63608;49.572;12.348;2023-09-19T10:32:12;1.10;;;1.00;;
37097;SDS011;63608;49.572;12.348;2023-09-19T10:34:19;1.47;;;0.93;;
37097;SDS011;63608;49.572;12.348;2023-09-19T10:36:23;1.00;;;0.90;;
37097;SDS011;63608;49.572;12.348;2023-09-19T10:38:27;0.90;;;0.80;;
37097;SDS011;63608;49.572;12.348;2023-09-19T10:40:33;0.87;;;0.87;;
37097;SDS011;63608;49.572;12.348;2023-09-19T10:42:37;0.97;;;0.93;;
37097;SDS011;63608;49.572;12.348;2023-09-19T10:44:41;1.10;;;1.00;;
37097;SDS011;63608;49.572;12.348;2023-09-19T10:46:45;0.83;;;0.83;;
37097;SDS011;63608;49.572;12.348;2023-09-19T10:48:51;1.00;;;0.90;;
37097;SDS011;63608;49.572;12.348;2023-09-19T10:50:57;6.13;;;0.83;;
37097;SDS011;63608;49.572;12.348;2023-09-19T10:53:14;1.50;;;1.10;;
37097;SDS011;63608;49.572;12.348;2023-09-19T10:55:15;1.43;;;0.97;;
37097;SDS011;63608;49.572;12.348;2023-09-19T10:57:23;0.90;;;0.90;;
37097;SDS011;63608;49.572;12.348;2023-09-19T10:59:24;1.20;;;1.07;;
37097;SDS011;63608;49.572;12.348;2023-09-19T11:01:41;1.00;;;0.80;;
37097;SDS011;63608;49.572;12.348;2023-09-19T11:03:53;1.10;;;1.00;;
37097;SDS011;63608;49.572;12.348;2023-09-19T11:06:32;1.10;;;0.90;;
37097;SDS011;63608;49.572;12.348;2023-09-19T11:08:53;1.53;;;1.03;;
37097;SDS011;63608;49.572;12.348;2023-09-19T11:11:05;1.43;;;0.93;;
37097;SDS011;63608;49.572;12.348;2023-09-19T11:13:46;1.07;;;0.97;;
37097;SDS011;63608;49.572;12.348;2023-09-19T11:16:19;0.80;;;0.80;;
37097;SDS011;63608;49.572;12.348;2023-09-19T11:23:28;1.47;;;1.00;;
37097;SDS011;63608;49.572;12.348;2023-09-19T11:25:42;1.10;;;1.00;;
37097;SDS011;63608;49.572;12.348;2023-09-19T11:30:40;1.20;;;1.10;;
37097;SDS011;63608;49.572;12.348;2023-09-19T11:35:22;1.43;;;1.10;;
37097;SDS011;63608;49.572;12.348;2023-09-19T11:38:19;2.13;;;0.93;;
37097;SDS011;63608;49.572;12.348;2023-09-19T11:43:42;0.80;;;0.80;;
37097;SDS011;63608;49.572;12.348;2023-09-19T11:46:03;1.00;;;0.90;;
37097;SDS011;63608;49.572;12.348;2023-09-19T11:48:07;1.57;;;1.10;;
37097;SDS011;63608;49.572;12.348;2023-09-19T11:50:16;1.47;;;1.37;;
37097;SDS011;63608;49.572;12.348;2023-09-19T11:52:23;1.30;;;1.20;;
37097;SDS011;63608;49.572;12.348;2023-09-19T11:54:29;1.63;;;1.10;;
37097;SDS011;63608;49.572;12.348;2023-09-19T11:56:32;0.97;;;0.87;;
37097;SDS011;63608;49.572;12.348;2023-09-19T11:58:41;0.90;;;0.80;;
37097;SDS011;63608;49.572;12.348;2023-09-19T12:00:43;0.80;;;0.70;;
37097;SDS011;63608;49.572;12.348;2023-09-19T12:02:47;3.63;;;1.23;;
37097;SDS011;63608;49.572;12.348;2023-09-19T12:04:54;0.70;;;0.70;;
37097;SDS011;63608;49.572;12.348;2023-09-19T12:06:58;1.10;;;1.00;;
37097;SDS011;63608;49.572;12.348;2023-09-19T12:09:07;1.20;;;1.10;;
37097;SDS011;63608;49.572;12.348;2023-09-19T12:11:17;1.17;;;1.07;;
37097;SDS011;63608;49.572;12.348;2023-09-19T12:13:22;3.80;;;1.10;;
37097;SDS011;63608;49.572;12.348;2023-09-19T12:15:30;1.00;;;0.90;;
37097;SDS011;63608;49.572;12.348;2023-09-19T12:17:39;7.70;;;1.10;;
37097;SDS011;63608;49.572;12.348;2023-09-19T12:19:49;1.20;;;1.00;;
37097;SDS011;63608;49.572;12.348;2023-09-19T12:21:57;3.07;;;1.43;;
37097;SDS011;63608;49.572;12.348;2023-09-19T12:24:11;1.00;;;0.90;;
37097;SDS011;63608;49.572;12.348;2023-09-19T12:26:19;1.40;;;1.00;;
37097;SDS011;63608;49.572;12.348;2023-09-19T12:28:24;1.27;;;0.90;;
37097;SDS011;63608;49.572;12.348;2023-09-19T12:30:30;1.00;;;0.90;;
37097;SDS011;63608;49.572;12.348;2023-09-19T12:32:41;1.10;;;0.90;;
37097;SDS011;63608;49.572;12.348;2023-09-19T12:34:50;1.20;;;1.10;;
37097;SDS011;63608;49.572;12.348;2023-09-19T12:37:05;1.10;;;1.00;;
37097;SDS011;63608;49.572;12.348;2023-09-19T12:39:26;1.47;;;1.00;;
37097;SDS011;63608;49.572;12.348;2023-09-19T12:41:30;1.30;;;1.20;;
37097;SDS011;63608;49.572;12.348;2023-09-19T12:43:32;1.00;;;1.00;;